createdAt,value
2018-06-03T00:00:40.033Z,16.91
2018-06-03T00:02:32.868Z,16.86
2018-06-03T00:03:32.824Z,16.87
2018-06-03T00:05:25.794Z,16.90
2018-06-03T00:06:25.754Z,16.89
2018-06-03T00:08:18.726Z,16.83
2018-06-03T00:09:18.683Z,16.76
2018-06-03T00:11:11.485Z,16.83
2018-06-03T00:12:11.451Z,16.71
2018-06-03T00:14:04.289Z,16.71
2018-06-03T00:15:04.253Z,16.83
2018-06-03T00:16:57.209Z,16.72
2018-06-03T00:17:57.169Z,16.64
2018-06-03T00:19:50.156Z,16.61
2018-06-03T00:20:50.099Z,16.53
2018-06-03T00:22:43.060Z,16.54
2018-06-03T00:23:43.026Z,16.51
2018-06-03T00:25:35.883Z,16.53
2018-06-03T00:26:35.829Z,16.49
2018-06-03T00:28:28.815Z,16.46
2018-06-03T00:29:28.741Z,16.46
2018-06-03T00:31:21.705Z,16.46
2018-06-03T00:32:21.725Z,16.43
2018-06-03T00:34:14.802Z,16.46
2018-06-03T00:35:14.738Z,16.43
2018-06-03T00:37:07.681Z,16.43
2018-06-03T00:38:07.653Z,16.38
2018-06-03T00:40:00.618Z,16.28
2018-06-03T00:41:00.595Z,16.28
2018-06-03T00:42:53.696Z,16.33
2018-06-03T00:43:53.653Z,16.28
2018-06-03T00:45:46.495Z,16.31
2018-06-03T00:46:46.455Z,16.28
2018-06-03T00:48:39.442Z,16.10
2018-06-03T00:49:39.414Z,16.20
2018-06-03T00:51:34.335Z,16.16
2018-06-03T00:52:32.452Z,16.15
2018-06-03T00:54:25.289Z,16.08
2018-06-03T00:55:25.232Z,16.02
2018-06-03T00:57:18.208Z,16.05
2018-06-03T00:58:18.163Z,16.02
2018-06-03T01:00:13.107Z,16.10
2018-06-03T01:01:11.089Z,16.05
2018-06-03T01:03:03.911Z,16.16
2018-06-03T01:04:03.872Z,16.15
2018-06-03T01:06:04.319Z,16.15
2018-06-03T01:06:56.806Z,16.17
2018-06-03T01:08:49.773Z,16.13
2018-06-03T01:09:49.742Z,16.13
2018-06-03T01:11:46.190Z,16.12
2018-06-03T01:12:42.801Z,16.16
2018-06-03T01:14:35.766Z,16.10
2018-06-03T01:15:35.740Z,16.02
2018-06-03T01:17:28.736Z,16.16
2018-06-03T01:18:28.656Z,16.02
2018-06-03T01:20:21.806Z,16.02
2018-06-03T01:21:21.732Z,16.02
2018-06-03T01:23:14.725Z,16.02
2018-06-03T01:24:14.684Z,16.01
2018-06-03T01:26:07.526Z,16.01
2018-06-03T01:27:07.482Z,16.09
2018-06-03T01:29:00.288Z,16.08
2018-06-03T01:30:00.259Z,16.08
2018-06-03T01:31:54.707Z,16.08
2018-06-03T01:32:53.042Z,16.04
2018-06-03T01:34:45.996Z,16.08
2018-06-03T01:35:45.963Z,16.05
2018-06-03T01:37:42.401Z,16.08
2018-06-03T01:38:38.928Z,15.98
2018-06-03T01:40:32.152Z,16.01
2018-06-03T01:41:32.027Z,16.00
2018-06-03T01:43:25.069Z,16.01
2018-06-03T01:44:24.962Z,15.97
2018-06-03T01:46:17.912Z,16.04
2018-06-03T01:47:17.894Z,16.09
2018-06-03T01:49:10.754Z,16.04
2018-06-03T01:50:10.706Z,16.05
2018-06-03T01:52:05.641Z,16.05
2018-06-03T01:53:03.623Z,16.09
2018-06-03T01:54:56.600Z,16.04
2018-06-03T01:55:56.570Z,16.05
2018-06-03T01:57:49.548Z,16.12
2018-06-03T01:58:49.498Z,16.08
2018-06-03T02:00:42.515Z,16.05
2018-06-03T02:01:42.463Z,16.04
2018-06-03T02:03:35.908Z,16.01
2018-06-03T02:04:35.375Z,16.05
2018-06-03T02:06:28.202Z,16.04
2018-06-03T02:07:28.204Z,16.00
2018-06-03T02:09:21.323Z,16.00
2018-06-03T02:10:21.249Z,15.97
2018-06-03T02:12:14.209Z,15.95
2018-06-03T02:13:14.182Z,15.95
2018-06-03T02:15:07.180Z,15.98
2018-06-03T02:16:07.120Z,15.98
2018-06-03T02:17:59.935Z,15.97
2018-06-03T02:18:59.899Z,15.97
2018-06-03T02:20:52.876Z,15.92
2018-06-03T02:21:52.829Z,15.98
2018-06-03T02:23:45.802Z,15.97
2018-06-03T02:24:45.776Z,15.91
2018-06-03T02:26:38.749Z,15.90
2018-06-03T02:27:38.698Z,15.92
2018-06-03T02:29:33.640Z,15.91
2018-06-03T02:30:31.646Z,15.91
2018-06-03T02:32:24.446Z,15.91
2018-06-03T02:33:24.420Z,15.94
2018-06-03T02:35:17.397Z,15.90
2018-06-03T02:36:17.366Z,15.86
2018-06-03T02:38:10.482Z,15.84
2018-06-03T02:39:10.426Z,15.83
2018-06-03T02:41:03.419Z,15.86
2018-06-03T02:42:03.376Z,15.82
2018-06-03T02:43:57.802Z,15.76
2018-06-03T02:44:56.274Z,15.72
2018-06-03T02:46:49.092Z,15.73
2018-06-03T02:47:49.061Z,15.75
2018-06-03T02:49:42.045Z,15.75
2018-06-03T02:50:41.891Z,15.70
2018-06-03T02:52:34.860Z,15.64
2018-06-03T02:53:34.814Z,15.70
2018-06-03T02:55:27.639Z,15.64
2018-06-03T02:56:27.729Z,15.67
2018-06-03T02:58:20.665Z,15.68
2018-06-03T02:59:20.631Z,15.61
2018-06-03T03:01:15.582Z,15.62
2018-06-03T03:02:13.587Z,15.65
2018-06-03T03:04:06.542Z,15.47
2018-06-03T03:05:06.510Z,15.51
2018-06-03T03:06:59.346Z,15.52
2018-06-03T03:07:59.296Z,15.44
2018-06-03T03:09:52.350Z,15.46
2018-06-03T03:10:52.325Z,15.42
2018-06-03T03:12:45.335Z,15.46
2018-06-03T03:13:45.287Z,15.43
2018-06-03T03:15:38.114Z,15.37
2018-06-03T03:16:38.069Z,15.29
2018-06-03T03:18:31.225Z,15.33
2018-06-03T03:19:31.166Z,15.28
2018-06-03T03:21:27.601Z,15.22
2018-06-03T03:22:24.089Z,15.27
2018-06-03T03:24:17.052Z,15.27
2018-06-03T03:25:17.006Z,15.24
2018-06-03T03:27:09.890Z,15.25
2018-06-03T03:28:09.857Z,15.24
2018-06-03T03:30:02.840Z,15.21
2018-06-03T03:31:02.786Z,15.22
2018-06-03T03:32:55.761Z,15.19
2018-06-03T03:33:55.721Z,15.21
2018-06-03T03:35:48.876Z,15.24
2018-06-03T03:36:48.816Z,15.24
2018-06-03T03:38:41.902Z,15.22
2018-06-03T03:39:41.761Z,15.21
2018-06-03T03:41:34.732Z,15.28
2018-06-03T03:42:34.672Z,15.22
2018-06-03T03:44:29.114Z,15.21
2018-06-03T03:45:27.456Z,15.21
2018-06-03T03:47:20.408Z,15.17
2018-06-03T03:48:20.253Z,15.19
2018-06-03T03:50:13.271Z,15.17
2018-06-03T03:51:13.229Z,15.10
2018-06-03T03:53:06.243Z,15.19
2018-06-03T03:54:06.181Z,15.21
2018-06-03T03:55:59.016Z,15.21
2018-06-03T03:56:58.957Z,15.17
2018-06-03T03:58:53.413Z,15.19
2018-06-03T03:59:51.741Z,15.22
2018-06-03T04:01:45.672Z,15.17
2018-06-03T04:02:44.648Z,15.19
2018-06-03T04:04:37.652Z,15.21
2018-06-03T04:05:37.589Z,15.22
2018-06-03T04:07:30.740Z,15.21
2018-06-03T04:08:30.686Z,15.19
2018-06-03T04:10:23.664Z,15.22
2018-06-03T04:11:23.596Z,15.19
2018-06-03T04:13:18.600Z,15.22
2018-06-03T04:14:16.534Z,15.25
2018-06-03T04:16:09.355Z,15.27
2018-06-03T04:17:09.308Z,15.29
2018-06-03T04:19:10.254Z,15.22
2018-06-03T04:20:02.254Z,15.29
2018-06-03T04:21:55.221Z,15.28
2018-06-03T04:22:55.171Z,15.29
2018-06-03T04:24:48.176Z,15.28
2018-06-03T04:25:48.084Z,15.35
2018-06-03T04:27:41.089Z,15.27
2018-06-03T04:28:41.034Z,15.29
2018-06-03T04:30:34.002Z,15.37
2018-06-03T04:31:33.958Z,15.36
2018-06-03T04:33:26.949Z,15.42
2018-06-03T04:34:26.871Z,15.39
2018-06-03T04:36:19.703Z,15.39
2018-06-03T04:37:19.671Z,15.43
2018-06-03T04:39:12.638Z,15.39
2018-06-03T04:40:12.594Z,15.47
2018-06-03T04:42:05.543Z,15.43
2018-06-03T04:43:05.517Z,15.55
2018-06-03T04:44:58.614Z,15.47
2018-06-03T04:45:58.564Z,15.51
2018-06-03T04:47:51.447Z,15.52
2018-06-03T04:48:51.369Z,15.44
2018-06-03T04:50:44.304Z,15.55
2018-06-03T04:51:44.278Z,15.43
2018-06-03T04:53:40.706Z,15.47
2018-06-03T04:54:37.212Z,15.58
2018-06-03T04:56:30.103Z,15.54
2018-06-03T04:57:30.075Z,15.52
2018-06-03T04:59:23.082Z,15.47
2018-06-03T05:00:23.035Z,15.47
2018-06-03T05:02:16.021Z,15.58
2018-06-03T05:03:15.979Z,15.65
2018-06-03T05:05:12.404Z,15.61
2018-06-03T05:06:08.909Z,15.64
2018-06-03T05:08:01.913Z,15.61
2018-06-03T05:09:01.855Z,15.70
2018-06-03T05:10:54.838Z,15.76
2018-06-03T05:11:54.768Z,15.76
2018-06-03T05:13:49.697Z,15.76
2018-06-03T05:14:47.878Z,15.84
2018-06-03T05:16:40.796Z,15.86
2018-06-03T05:17:40.750Z,15.90
2018-06-03T05:19:35.699Z,15.97
2018-06-03T05:20:33.675Z,15.92
2018-06-03T05:22:26.842Z,15.98
2018-06-03T05:23:26.758Z,15.95
2018-06-03T05:25:19.711Z,15.97
2018-06-03T05:26:19.657Z,15.98
2018-06-03T05:28:12.701Z,16.05
2018-06-03T05:29:12.625Z,16.08
2018-06-03T05:31:05.521Z,16.15
2018-06-03T05:32:05.480Z,16.13
2018-06-03T05:33:58.472Z,16.13
2018-06-03T05:34:58.395Z,16.17
2018-06-03T05:36:51.379Z,16.16
2018-06-03T05:37:51.341Z,16.13
2018-06-03T05:39:44.555Z,16.15
2018-06-03T05:40:44.425Z,16.12
2018-06-03T05:42:37.365Z,16.17
2018-06-03T05:43:37.325Z,16.17
2018-06-03T05:45:33.776Z,16.13
2018-06-03T05:46:30.267Z,16.12
2018-06-03T05:48:23.092Z,16.35
2018-06-03T05:49:23.035Z,16.26
2018-06-03T05:51:15.856Z,16.36
2018-06-03T05:52:15.830Z,16.43
2018-06-03T05:54:08.803Z,16.43
2018-06-03T05:55:08.756Z,16.46
2018-06-03T05:57:01.823Z,16.57
2018-06-03T05:58:01.789Z,16.54
2018-06-03T05:59:56.236Z,16.69
2018-06-03T06:00:54.640Z,16.75
2018-06-03T06:02:47.586Z,16.71
2018-06-03T06:03:47.552Z,16.76
2018-06-03T06:05:40.376Z,16.90
2018-06-03T06:06:40.340Z,16.87
2018-06-03T06:08:33.303Z,16.93
2018-06-03T06:09:33.265Z,17.01
2018-06-03T06:11:27.720Z,17.04
2018-06-03T06:12:26.077Z,17.16
2018-06-03T06:14:19.088Z,17.23
2018-06-03T06:15:19.035Z,17.27
2018-06-03T06:17:11.998Z,17.36
2018-06-03T06:18:11.965Z,17.31
2018-06-03T06:20:12.422Z,17.36
2018-06-03T06:21:04.741Z,17.49
2018-06-03T06:22:57.683Z,17.59
2018-06-03T06:23:57.640Z,17.57
2018-06-03T06:25:50.502Z,17.72
2018-06-03T06:26:50.416Z,17.67
2018-06-03T06:28:43.388Z,17.78
2018-06-03T06:29:43.348Z,17.87
2018-06-03T06:31:38.289Z,17.95
2018-06-03T06:32:36.283Z,18.03
2018-06-03T06:34:29.154Z,18.11
2018-06-03T06:35:29.113Z,18.15
2018-06-03T06:37:24.061Z,18.13
2018-06-03T06:38:22.124Z,18.20
2018-06-03T06:40:15.091Z,18.29
2018-06-03T06:41:15.045Z,18.22
2018-06-03T06:43:08.181Z,18.34
2018-06-03T06:44:08.129Z,18.31
2018-06-03T06:46:01.117Z,18.40
2018-06-03T06:47:01.074Z,18.38
2018-06-03T06:48:54.075Z,18.45
2018-06-03T06:49:54.038Z,18.44
2018-06-03T06:51:46.911Z,18.56
2018-06-03T06:52:46.815Z,18.58
2018-06-03T06:54:39.778Z,18.60
2018-06-03T06:55:39.746Z,18.60
2018-06-03T06:57:32.746Z,18.78
2018-06-03T06:58:32.688Z,18.70
2018-06-03T07:00:25.824Z,18.83
2018-06-03T07:01:25.768Z,18.88
2018-06-03T07:03:18.751Z,18.96
2018-06-03T07:04:18.713Z,18.96
2018-06-03T07:06:11.708Z,19.02
2018-06-03T07:07:11.670Z,19.08
2018-06-03T07:09:04.541Z,19.19
2018-06-03T07:10:04.498Z,19.18
2018-06-03T07:11:57.497Z,19.27
2018-06-03T07:12:57.438Z,19.26
2018-06-03T07:14:50.259Z,19.36
2018-06-03T07:15:50.219Z,19.40
2018-06-03T07:17:43.085Z,19.48
2018-06-03T07:18:43.083Z,19.48
2018-06-03T07:20:36.255Z,19.54
2018-06-03T07:21:36.112Z,19.49
2018-06-03T07:23:29.100Z,19.63
2018-06-03T07:24:29.066Z,19.71
2018-06-03T07:26:22.069Z,19.77
2018-06-03T07:27:22.005Z,19.82
2018-06-03T07:29:14.891Z,19.89
2018-06-03T07:30:14.852Z,19.85
2018-06-03T07:32:07.748Z,19.88
2018-06-03T07:33:07.676Z,19.92
2018-06-03T07:35:00.610Z,19.95
2018-06-03T07:36:00.575Z,19.91
2018-06-03T07:37:53.587Z,19.85
2018-06-03T07:38:53.533Z,19.91
2018-06-03T07:40:46.584Z,19.95
2018-06-03T07:41:46.552Z,19.95
2018-06-03T07:43:39.638Z,20.09
2018-06-03T07:44:39.487Z,20.13
2018-06-03T07:46:32.489Z,20.11
2018-06-03T07:47:32.424Z,20.19
2018-06-03T07:49:25.243Z,20.32
2018-06-03T07:50:25.270Z,20.31
2018-06-03T07:52:18.109Z,20.41
2018-06-03T07:53:18.026Z,20.51
2018-06-03T07:55:10.985Z,20.41
2018-06-03T07:56:10.972Z,20.55
2018-06-03T07:58:03.799Z,20.51
2018-06-03T07:59:03.743Z,20.59
2018-06-03T08:00:56.892Z,20.48
2018-06-03T08:01:56.835Z,20.48
2018-06-03T08:03:51.290Z,20.51
2018-06-03T08:04:49.634Z,20.52
2018-06-03T08:06:42.733Z,20.63
2018-06-03T08:07:42.691Z,20.65
2018-06-03T08:09:35.777Z,20.69
2018-06-03T08:10:35.610Z,20.74
2018-06-03T08:12:28.571Z,20.75
2018-06-03T08:13:28.539Z,20.78
2018-06-03T08:15:23.487Z,20.81
2018-06-03T08:16:21.494Z,20.77
2018-06-03T08:18:14.602Z,20.87
2018-06-03T08:19:14.546Z,20.87
2018-06-03T08:21:07.510Z,20.97
2018-06-03T08:22:07.481Z,21.02
2018-06-03T08:24:00.459Z,21.12
2018-06-03T08:25:00.423Z,20.90
2018-06-03T08:26:53.310Z,21.09
2018-06-03T08:27:53.281Z,21.15
2018-06-03T08:29:46.292Z,21.14
2018-06-03T08:30:46.228Z,21.18
2018-06-03T08:32:39.035Z,21.22
2018-06-03T08:33:39.007Z,21.32
2018-06-03T08:35:31.895Z,21.33
2018-06-03T08:36:31.835Z,21.36
2018-06-03T08:38:24.736Z,21.36
2018-06-03T08:39:24.695Z,21.46
2018-06-03T08:41:17.664Z,21.46
2018-06-03T08:42:17.628Z,21.55
2018-06-03T08:44:10.514Z,21.72
2018-06-03T08:45:10.411Z,21.69
2018-06-03T08:47:03.370Z,21.72
2018-06-03T08:48:03.342Z,21.80
2018-06-03T08:49:56.262Z,21.75
2018-06-03T08:50:56.215Z,21.76
2018-06-03T08:52:49.173Z,21.83
2018-06-03T08:53:49.138Z,21.89
2018-06-03T08:55:42.240Z,21.89
2018-06-03T08:56:42.175Z,21.99
2018-06-03T08:58:35.326Z,21.92
2018-06-03T08:59:35.270Z,21.95
2018-06-03T09:01:28.342Z,22.08
2018-06-03T09:02:28.299Z,22.04
2018-06-03T09:04:21.557Z,22.25
2018-06-03T09:05:21.431Z,22.35
2018-06-03T09:07:14.406Z,22.39
2018-06-03T09:08:14.381Z,22.50
2018-06-03T09:10:07.362Z,22.55
2018-06-03T09:11:07.318Z,22.69
2018-06-03T09:13:00.779Z,22.68
2018-06-03T09:14:00.336Z,22.69
2018-06-03T09:15:53.192Z,22.54
2018-06-03T09:16:53.137Z,22.54
2018-06-03T09:18:46.186Z,22.69
2018-06-03T09:19:46.088Z,22.63
2018-06-03T09:21:39.356Z,22.68
2018-06-03T09:22:39.347Z,22.63
2018-06-03T09:24:32.185Z,22.70
2018-06-03T09:25:32.148Z,22.83
2018-06-03T09:27:25.118Z,22.96
2018-06-03T09:28:25.092Z,22.99
2018-06-03T09:30:19.663Z,23.08
2018-06-03T09:31:17.898Z,23.05
2018-06-03T09:33:10.868Z,22.98
2018-06-03T09:34:10.825Z,23.17
2018-06-03T09:36:06.771Z,23.39
2018-06-03T09:37:03.624Z,23.37
2018-06-03T09:38:56.608Z,23.50
2018-06-03T09:39:56.572Z,23.63
2018-06-03T09:41:49.594Z,23.65
2018-06-03T09:42:49.518Z,23.69
2018-06-03T09:44:43.958Z,23.63
2018-06-03T09:45:42.449Z,23.77
2018-06-03T09:47:35.438Z,23.99
2018-06-03T09:48:35.411Z,24.21
2018-06-03T09:50:28.309Z,24.36
2018-06-03T09:51:28.224Z,24.40
2018-06-03T09:53:21.297Z,24.13
2018-06-03T09:54:21.223Z,24.20
2018-06-03T09:56:14.030Z,24.40
2018-06-03T09:57:13.993Z,24.57
2018-06-03T09:59:06.985Z,24.70
2018-06-03T10:00:06.954Z,24.91
2018-06-03T10:01:59.977Z,24.85
2018-06-03T10:02:59.929Z,24.81
2018-06-03T10:04:52.959Z,24.70
2018-06-03T10:05:52.878Z,24.76
2018-06-03T10:07:51.324Z,24.74
2018-06-03T10:08:45.898Z,24.76
2018-06-03T10:10:38.908Z,24.92
2018-06-03T10:11:38.850Z,24.86
2018-06-03T10:13:31.817Z,24.74
2018-06-03T10:14:31.793Z,24.65
2018-06-03T10:16:35.755Z,24.66
2018-06-03T10:17:24.905Z,24.66
2018-06-03T10:19:17.924Z,24.69
2018-06-03T10:20:17.914Z,24.70
2018-06-03T10:22:10.746Z,24.65
2018-06-03T10:23:10.699Z,24.66
2018-06-03T10:25:03.835Z,24.65
2018-06-03T10:26:03.823Z,24.66
2018-06-03T10:27:58.260Z,24.47
2018-06-03T10:28:56.743Z,24.39
2018-06-03T10:30:49.701Z,24.30
2018-06-03T10:31:49.679Z,24.20
2018-06-03T10:33:42.640Z,24.40
2018-06-03T10:34:42.481Z,24.39
2018-06-03T10:36:35.357Z,24.26
2018-06-03T10:37:35.289Z,24.35
2018-06-03T10:39:28.295Z,24.51
2018-06-03T10:40:28.219Z,24.88
2018-06-03T10:42:21.195Z,25.22
2018-06-03T10:43:21.173Z,25.25
2018-06-03T10:45:14.210Z,25.50
2018-06-03T10:46:14.176Z,25.55
2018-06-03T10:48:07.162Z,25.72
2018-06-03T10:49:07.104Z,25.72
2018-06-03T10:51:00.090Z,26.03
2018-06-03T10:52:00.060Z,26.43
2018-06-03T10:53:56.011Z,27.22
2018-06-03T10:54:52.865Z,27.60
2018-06-03T10:56:45.861Z,28.26
2018-06-03T10:57:45.841Z,28.45
2018-06-03T10:59:38.922Z,29.20
2018-06-03T11:00:38.875Z,29.50
2018-06-03T11:02:31.913Z,29.93
2018-06-03T11:03:31.880Z,30.15
2018-06-03T11:05:28.454Z,29.71
2018-06-03T11:06:24.955Z,30.34
2018-06-03T11:08:17.866Z,30.88
2018-06-03T11:09:17.820Z,31.07
2018-06-03T11:11:11.361Z,31.77
2018-06-03T11:12:10.801Z,31.87
2018-06-03T11:14:09.399Z,32.29
2018-06-03T11:15:03.938Z,32.56
2018-06-03T11:16:57.761Z,32.33
2018-06-03T11:17:57.010Z,32.27
2018-06-03T11:19:50.127Z,31.47
2018-06-03T11:20:50.096Z,31.66
2018-06-03T11:22:43.412Z,32.30
2018-06-03T11:23:43.465Z,32.37
2018-06-03T11:25:36.118Z,32.49
2018-06-03T11:26:36.041Z,32.15
2018-06-03T11:28:29.750Z,32.22
2018-06-03T11:29:29.025Z,32.41
2018-06-03T11:31:22.541Z,32.37
2018-06-03T11:32:22.119Z,31.92
2018-06-03T11:34:15.277Z,31.97
2018-06-03T11:35:15.093Z,32.51
2018-06-03T11:37:08.350Z,32.83
2018-06-03T11:38:08.214Z,32.68
2018-06-03T11:40:01.251Z,32.49
2018-06-03T11:41:01.226Z,32.37
2018-06-03T11:42:54.133Z,32.09
2018-06-03T11:43:54.144Z,31.65
2018-06-03T11:45:47.173Z,31.22
2018-06-03T11:46:47.022Z,30.99
2018-06-03T11:48:40.030Z,30.18
2018-06-03T11:49:40.000Z,30.06
2018-06-03T11:51:36.521Z,30.31
2018-06-03T11:52:32.970Z,30.46
2018-06-03T11:54:25.959Z,30.54
2018-06-03T11:55:25.831Z,30.37
2018-06-03T11:57:18.848Z,30.57
2018-06-03T11:58:18.961Z,30.66
2018-06-03T12:00:12.936Z,30.66
2018-06-03T12:01:12.783Z,30.65
2018-06-03T12:03:05.616Z,30.54
2018-06-03T12:04:05.598Z,30.09
2018-06-03T12:05:58.658Z,30.31
2018-06-03T12:06:58.559Z,30.18
2018-06-03T12:08:51.538Z,29.81
2018-06-03T12:09:51.550Z,29.57
2018-06-03T12:11:44.708Z,29.42
2018-06-03T12:12:44.636Z,29.13
2018-06-03T12:14:37.594Z,29.31
2018-06-03T12:15:37.573Z,29.34
2018-06-03T12:17:32.033Z,28.76
2018-06-03T12:18:30.403Z,28.67
2018-06-03T12:20:23.547Z,28.33
2018-06-03T12:21:23.491Z,28.08
2018-06-03T12:23:24.085Z,27.92
2018-06-03T12:24:16.324Z,27.85
2018-06-03T12:26:09.353Z,27.82
2018-06-03T12:27:09.280Z,27.82
2018-06-03T12:29:03.308Z,27.52
2018-06-03T12:30:02.624Z,27.39
2018-06-03T12:31:55.418Z,27.67
2018-06-03T12:32:55.453Z,27.78
2018-06-03T12:34:48.414Z,28.39
2018-06-03T12:35:48.375Z,28.60
2018-06-03T12:37:41.373Z,29.29
2018-06-03T12:38:41.321Z,29.13
2018-06-03T12:40:34.299Z,29.75
2018-06-03T12:41:34.291Z,29.84
2018-06-03T12:43:27.513Z,30.09
2018-06-03T12:44:27.370Z,30.31
2018-06-03T12:46:20.399Z,29.86
2018-06-03T12:47:20.333Z,30.27
2018-06-03T12:49:13.349Z,30.88
2018-06-03T12:50:13.334Z,31.33
2018-06-03T12:52:06.385Z,31.74
2018-06-03T12:53:06.356Z,31.51
2018-06-03T12:54:59.198Z,31.46
2018-06-03T12:55:59.164Z,31.49
2018-06-03T12:57:59.624Z,32.34
2018-06-03T12:58:52.119Z,32.75
2018-06-03T13:00:45.031Z,33.24
2018-06-03T13:01:45.024Z,33.22
2018-06-03T13:03:38.059Z,32.49
2018-06-03T13:04:37.965Z,32.71
2018-06-03T13:06:30.857Z,32.59
2018-06-03T13:07:30.960Z,32.01
2018-06-03T13:09:24.100Z,31.70
2018-06-03T13:10:23.952Z,31.24
2018-06-03T13:12:16.945Z,30.70
2018-06-03T13:13:16.927Z,30.34
2018-06-03T13:15:09.893Z,29.71
2018-06-03T13:16:09.872Z,29.49
2018-06-03T13:18:02.726Z,29.23
2018-06-03T13:19:02.684Z,29.02
2018-06-03T13:20:55.853Z,28.94
2018-06-03T13:21:55.834Z,28.82
2018-06-03T13:23:48.832Z,28.75
2018-06-03T13:24:48.774Z,28.45
2018-06-03T13:26:41.635Z,28.37
2018-06-03T13:27:41.600Z,28.14
2018-06-03T13:29:34.739Z,27.52
2018-06-03T13:30:34.547Z,27.32
2018-06-03T13:32:27.526Z,27.27
2018-06-03T13:33:27.499Z,26.60
2018-06-03T13:35:27.958Z,26.68
2018-06-03T13:36:20.410Z,26.90
2018-06-03T13:38:14.860Z,26.83
2018-06-03T13:39:13.219Z,26.88
2018-06-03T13:41:06.231Z,27.40
2018-06-03T13:42:06.206Z,27.52
2018-06-03T13:44:01.157Z,27.65
2018-06-03T13:44:59.152Z,27.11
2018-06-03T13:46:51.973Z,26.89
2018-06-03T13:47:51.952Z,26.80
2018-06-03T13:49:44.958Z,26.99
2018-06-03T13:50:44.946Z,27.08
2018-06-03T13:52:37.894Z,26.68
2018-06-03T13:53:37.876Z,26.48
2018-06-03T13:55:30.756Z,26.74
2018-06-03T13:56:30.701Z,26.99
2018-06-03T13:58:23.673Z,27.27
2018-06-03T13:59:23.641Z,27.78
2018-06-03T14:01:16.652Z,28.14
2018-06-03T14:02:16.606Z,28.25
2018-06-03T14:04:09.807Z,28.69
2018-06-03T14:05:09.692Z,28.75
2018-06-03T14:07:02.673Z,29.27
2018-06-03T14:08:02.639Z,29.36
2018-06-03T14:09:55.996Z,29.49
2018-06-03T14:10:55.911Z,29.63
2018-06-03T14:12:48.909Z,29.71
2018-06-03T14:13:48.906Z,29.98
2018-06-03T14:15:43.832Z,30.39
2018-06-03T14:16:42.263Z,30.10
2018-06-03T14:18:35.101Z,30.28
2018-06-03T14:19:35.078Z,30.27
2018-06-03T14:21:30.027Z,30.37
2018-06-03T14:22:28.046Z,30.48
2018-06-03T14:24:21.561Z,30.43
2018-06-03T14:25:21.027Z,30.81
2018-06-03T14:27:14.052Z,31.10
2018-06-03T14:28:13.989Z,31.33
2018-06-03T14:30:08.959Z,31.27
2018-06-03T14:31:06.954Z,31.21
2018-06-03T14:33:00.008Z,31.29
2018-06-03T14:33:59.976Z,31.27
2018-06-03T14:35:52.979Z,31.21
2018-06-03T14:36:52.971Z,31.15
2018-06-03T14:38:46.057Z,31.18
2018-06-03T14:39:46.042Z,31.46
2018-06-03T14:41:39.092Z,31.49
2018-06-03T14:42:38.993Z,31.62
2018-06-03T14:44:32.062Z,30.88
2018-06-03T14:45:31.968Z,30.88
2018-06-03T14:47:24.873Z,31.31
2018-06-03T14:48:24.853Z,31.51
2018-06-03T14:50:17.873Z,30.44
2018-06-03T14:51:17.825Z,30.63
2018-06-03T14:53:10.652Z,30.96
2018-06-03T14:54:10.632Z,30.99
2018-06-03T14:56:05.096Z,30.06
2018-06-03T14:57:03.447Z,29.84
2018-06-03T14:58:56.306Z,30.28
2018-06-03T14:59:56.296Z,30.66
2018-06-03T15:01:54.743Z,30.37
2018-06-03T15:02:49.273Z,30.50
2018-06-03T15:04:42.099Z,30.62
2018-06-03T15:05:42.078Z,30.78
2018-06-03T15:07:35.069Z,30.31
2018-06-03T15:08:35.033Z,30.28
2018-06-03T15:10:28.216Z,29.73
2018-06-03T15:11:28.196Z,29.66
2018-06-03T15:13:21.178Z,29.26
2018-06-03T15:14:21.149Z,29.02
2018-06-03T15:16:14.076Z,28.78
2018-06-03T15:17:14.057Z,28.91
2018-06-03T15:19:07.025Z,29.54
2018-06-03T15:20:07.015Z,29.78
2018-06-03T15:22:00.021Z,29.63
2018-06-03T15:22:59.994Z,29.49
2018-06-03T15:24:52.867Z,29.78
2018-06-03T15:25:52.851Z,29.49
2018-06-03T15:27:45.978Z,29.88
2018-06-03T15:28:45.890Z,29.79
2018-06-03T15:30:38.959Z,29.88
2018-06-03T15:31:38.853Z,30.08
2018-06-03T15:33:31.763Z,30.31
2018-06-03T15:34:31.736Z,30.48
2018-06-03T15:36:26.229Z,30.69
2018-06-03T15:37:24.558Z,30.68
2018-06-03T15:39:17.546Z,30.85
2018-06-03T15:40:17.519Z,30.66
2018-06-03T15:42:10.555Z,30.85
2018-06-03T15:43:10.476Z,30.99
2018-06-03T15:45:03.483Z,31.27
2018-06-03T15:46:03.442Z,30.96
2018-06-03T15:47:56.304Z,30.65
2018-06-03T15:48:56.267Z,30.72
2018-06-03T15:50:49.643Z,30.84
2018-06-03T15:51:49.576Z,30.99
2018-06-03T15:53:42.659Z,30.87
2018-06-03T15:54:42.599Z,30.88
2018-06-03T15:56:39.061Z,30.34
2018-06-03T15:57:35.547Z,29.95
2018-06-03T15:59:28.601Z,30.18
2018-06-03T16:00:28.556Z,30.31
2018-06-03T16:02:21.633Z,30.47
2018-06-03T16:03:21.661Z,30.63
2018-06-03T16:05:14.672Z,30.68
2018-06-03T16:06:14.640Z,30.78
2018-06-03T16:08:07.658Z,31.03
2018-06-03T16:09:07.742Z,30.53
2018-06-03T16:11:00.621Z,30.30
2018-06-03T16:12:00.572Z,30.18
2018-06-03T16:13:55.044Z,30.24
2018-06-03T16:14:53.474Z,30.28
2018-06-03T16:16:46.529Z,30.31
2018-06-03T16:17:46.428Z,30.34
2018-06-03T16:19:50.435Z,30.00
2018-06-03T16:20:39.392Z,29.72
2018-06-03T16:22:32.546Z,29.50
2018-06-03T16:23:32.483Z,29.42
2018-06-03T16:25:25.515Z,29.68
2018-06-03T16:26:25.453Z,29.69
2018-06-03T16:28:18.359Z,29.87
2018-06-03T16:29:18.265Z,29.49
2018-06-03T16:31:11.171Z,29.39
2018-06-03T16:32:11.164Z,29.34
2018-06-03T16:34:04.219Z,29.22
2018-06-03T16:35:04.117Z,29.17
2018-06-03T16:36:57.109Z,28.93
2018-06-03T16:37:57.094Z,28.78
2018-06-03T16:39:52.162Z,29.01
2018-06-03T16:40:50.431Z,29.01
2018-06-03T16:42:43.346Z,29.24
2018-06-03T16:43:43.307Z,29.49
2018-06-03T16:45:36.145Z,29.84
2018-06-03T16:46:36.126Z,29.72
2018-06-03T16:48:29.170Z,29.82
2018-06-03T16:49:29.124Z,29.76
2018-06-03T16:51:22.111Z,29.68
2018-06-03T16:52:22.086Z,29.73
2018-06-03T16:54:18.034Z,29.23
2018-06-03T16:55:14.884Z,29.34
2018-06-03T16:57:07.725Z,29.27
2018-06-03T16:58:07.700Z,28.98
2018-06-03T17:00:02.670Z,28.64
2018-06-03T17:01:00.674Z,28.79
2018-06-03T17:02:53.676Z,28.86
2018-06-03T17:03:53.642Z,28.75
2018-06-03T17:05:46.859Z,28.54
2018-06-03T17:06:46.819Z,28.37
2018-06-03T17:08:40.783Z,28.14
2018-06-03T17:09:39.837Z,28.30
2018-06-03T17:11:33.013Z,28.15
2018-06-03T17:12:32.907Z,28.32
2018-06-03T17:14:26.073Z,28.10
2018-06-03T17:15:26.010Z,28.22
2018-06-03T17:17:19.438Z,28.19
2018-06-03T17:18:19.138Z,27.98
2018-06-03T17:20:12.184Z,27.90
2018-06-03T17:21:12.084Z,27.82
2018-06-03T17:23:05.080Z,27.60
2018-06-03T17:24:05.053Z,27.64
2018-06-03T17:25:57.901Z,27.51
2018-06-03T17:26:57.851Z,27.47
2018-06-03T17:28:50.855Z,27.45
2018-06-03T17:29:50.835Z,27.26
2018-06-03T17:31:45.776Z,27.30
2018-06-03T17:32:43.788Z,27.35
2018-06-03T17:34:40.745Z,27.32
2018-06-03T17:35:36.915Z,27.27
2018-06-03T17:37:29.898Z,27.20
2018-06-03T17:38:29.908Z,26.97
2018-06-03T17:40:22.943Z,26.96
2018-06-03T17:41:22.822Z,26.84
2018-06-03T17:43:15.817Z,26.58
2018-06-03T17:44:15.790Z,26.68
2018-06-03T17:46:08.679Z,26.84
2018-06-03T17:47:08.602Z,26.66
2018-06-03T17:49:01.572Z,26.53
2018-06-03T17:50:01.543Z,26.51
2018-06-03T17:51:56.535Z,26.36
2018-06-03T17:52:54.618Z,26.26
2018-06-03T17:54:47.659Z,26.23
2018-06-03T17:55:47.566Z,26.22
2018-06-03T17:57:40.597Z,25.95
2018-06-03T17:58:40.531Z,26.02
2018-06-03T18:00:33.517Z,25.91
2018-06-03T18:01:33.494Z,25.93
2018-06-03T18:03:27.489Z,25.72
2018-06-03T18:04:26.464Z,25.66
2018-06-03T18:06:20.909Z,25.47
2018-06-03T18:07:19.258Z,25.47
2018-06-03T18:09:12.091Z,25.36
2018-06-03T18:10:12.057Z,25.38
2018-06-03T18:12:05.116Z,25.21
2018-06-03T18:13:05.087Z,25.07
2018-06-03T18:14:58.002Z,25.07
2018-06-03T18:15:57.962Z,25.07
2018-06-03T18:18:01.442Z,25.01
2018-06-03T18:18:51.085Z,25.04
2018-06-03T18:20:44.106Z,25.03
2018-06-03T18:21:44.078Z,24.93
2018-06-03T18:23:39.040Z,24.98
2018-06-03T18:24:37.073Z,24.91
2018-06-03T18:26:29.892Z,24.91
2018-06-03T18:27:29.867Z,24.81
2018-06-03T18:29:22.772Z,24.77
2018-06-03T18:30:22.673Z,24.78
2018-06-03T18:32:23.701Z,24.69
2018-06-03T18:33:15.623Z,24.69